logo dgac
Martes 06 de Diciembre del 2022
Buscar por aerodromo o helipuerto
Ingrese nombre de aeródromo, localidad o designador OACI:

Aeródromo: La Florida (PUB) (SCSE)

Ubicación: La Serena , IV Región, Chile (29º 54' 59'' S, 71º 11' 58'' W) Ver ubicación en el mapa

Pistas

Luces
Orientación Dimensión Pendiente Superficie Resistencia APCH THR RWY PAPI
12/30 1938 x 45 0,70 ASPH PCN 46 F/A/X/T
Horas de operación HJ
Elevación 146 m / 481 ft
Otra Información Adm : D.G.A.C.
Uso : PUB
Ubicado a 6 km al E de La Serena
TEL (51) 2272652/2272662 FAX (51) 2272674
email : aro.serena@dgac.gob.cl

Cámara de Aeródromo www.dgac.gob.cl

Otra información ver AIP-Chile Volumen I AD 3.9-10.2-L y Ver VAC/RET

CCCM/FCCV Descargar
andera de Chile
Mapa de La Florida (PUB) (SCSE)

Último METAR

METAR SCSE 060700Z 20003KT 9999 FEW011 12/12 Q1013

Último TAF

TAF SCSE 060608Z 0606/0706 29004KT CAVOK TX18/0619Z TN10/0610Z BECMG 0608/0610 SCT006 BKN010 BECMG 0614/0616 29010KT BKN013 BECMG 0618/0620 FEW015 BECMG 0702/0704 27004KT

Últimas fotos cámaras

Imagen aerodromo La Florida (PUB) (SCSE) N-Oeste tomada el 06-12-2022 07:05:33 Imagen aerodromo La Florida (PUB) (SCSE) Este tomada el 06-12-2022 07:06:34

Último NOTAM

C5541/22 NOTAMN Q)SCEZ/QLPAS/IV/BO/A/000/999/2955S07112W005 A)SCSE B)2212091130 C)2212091200 E)PAPI RWY 12 U/S DEBIDO A MAINT